sensor_id;sensor_type;location;lat;lon;timestamp;pressure;altitude;pressure_sealevel;temperature;humidity
804;BME280;25687;49.976;8.240;2023-06-14T00:01:24;99720.50;;;18.67;47.91
804;BME280;25687;49.976;8.240;2023-06-14T00:03:50;99716.25;;;18.66;47.71
804;BME280;25687;49.976;8.240;2023-06-14T00:06:15;99717.22;;;18.65;47.48
804;BME280;25687;49.976;8.240;2023-06-14T00:08:40;99722.03;;;18.60;47.86
804;BME280;25687;49.976;8.240;2023-06-14T00:11:06;99714.81;;;18.54;48.16
804;BME280;25687;49.976;8.240;2023-06-14T00:13:32;99717.00;;;18.59;48.05
804;BME280;25687;49.976;8.240;2023-06-14T00:15:57;99716.75;;;18.52;48.08
804;BME280;25687;49.976;8.240;2023-06-14T00:18:23;99715.53;;;18.46;48.38
804;BME280;25687;49.976;8.240;2023-06-14T00:20:54;99714.59;;;18.47;48.65
804;BME280;25687;49.976;8.240;2023-06-14T00:23:19;99714.91;;;18.34;49.13
804;BME280;25687;49.976;8.240;2023-06-14T00:25:45;99715.97;;;18.42;49.06
804;BME280;25687;49.976;8.240;2023-06-14T00:28:10;99722.00;;;18.42;49.36
804;BME280;25687;49.976;8.240;2023-06-14T00:30:35;99719.25;;;18.44;49.33
804;BME280;25687;49.976;8.240;2023-06-14T00:33:01;99715.59;;;18.36;50.04
804;BME280;25687;49.976;8.240;2023-06-14T00:35:26;99716.13;;;18.40;50.12
804;BME280;25687;49.976;8.240;2023-06-14T00:37:52;99713.75;;;18.19;50.46
804;BME280;25687;49.976;8.240;2023-06-14T00:40:17;99716.59;;;18.16;51.69
804;BME280;25687;49.976;8.240;2023-06-14T00:42:42;99712.78;;;18.20;50.66
804;BME280;25687;49.976;8.240;2023-06-14T00:45:08;99718.94;;;18.19;51.08
804;BME280;25687;49.976;8.240;2023-06-14T00:47:35;99716.91;;;18.13;51.07
804;BME280;25687;49.976;8.240;2023-06-14T00:50:02;99716.38;;;18.09;51.53
804;BME280;25687;49.976;8.240;2023-06-14T00:52:28;99713.06;;;18.07;51.59
804;BME280;25687;49.976;8.240;2023-06-14T00:54:54;99726.38;;;18.04;51.91
804;BME280;25687;49.976;8.240;2023-06-14T00:57:19;99716.41;;;17.99;52.51
804;BME280;25687;49.976;8.240;2023-06-14T00:59:47;99719.69;;;18.01;51.63
804;BME280;25687;49.976;8.240;2023-06-14T01:02:14;99719.78;;;18.10;51.51
804;BME280;25687;49.976;8.240;2023-06-14T01:04:44;99731.47;;;17.96;52.14
804;BME280;25687;49.976;8.240;2023-06-14T01:15:01;99728.06;;;17.95;52.85
804;BME280;25687;49.976;8.240;2023-06-14T01:17:28;99729.41;;;17.99;52.47
804;BME280;25687;49.976;8.240;2023-06-14T01:20:03;99727.91;;;17.87;53.68
804;BME280;25687;49.976;8.240;2023-06-14T01:22:32;99735.69;;;17.87;53.07
804;BME280;25687;49.976;8.240;2023-06-14T01:24:57;99730.66;;;17.85;53.05
804;BME280;25687;49.976;8.240;2023-06-14T01:27:24;99732.69;;;17.82;53.48
804;BME280;25687;49.976;8.240;2023-06-14T01:29:54;99723.94;;;17.83;53.50
804;BME280;25687;49.976;8.240;2023-06-14T01:32:23;99736.41;;;17.69;55.00
804;BME280;25687;49.976;8.240;2023-06-14T01:34:48;99730.94;;;17.72;55.09
804;BME280;25687;49.976;8.240;2023-06-14T01:37:14;99736.97;;;17.73;54.83
804;BME280;25687;49.976;8.240;2023-06-14T01:39:40;99736.16;;;17.72;54.66
804;BME280;25687;49.976;8.240;2023-06-14T01:42:07;99734.22;;;17.65;55.34
804;BME280;25687;49.976;8.240;2023-06-14T01:44:32;99724.13;;;17.62;55.22
804;BME280;25687;49.976;8.240;2023-06-14T01:47:01;99730.81;;;17.64;55.62
804;BME280;25687;49.976;8.240;2023-06-14T01:49:27;99736.81;;;17.55;56.69
804;BME280;25687;49.976;8.240;2023-06-14T01:51:52;99732.31;;;17.47;56.57
804;BME280;25687;49.976;8.240;2023-06-14T01:54:17;99736.72;;;17.56;56.79
804;BME280;25687;49.976;8.240;2023-06-14T01:56:42;99733.16;;;17.48;57.25
804;BME280;25687;49.976;8.240;2023-06-14T01:59:08;99732.59;;;17.34;57.83
804;BME280;25687;49.976;8.240;2023-06-14T02:01:33;99728.50;;;17.32;58.46
804;BME280;25687;49.976;8.240;2023-06-14T02:03:59;99729.72;;;17.27;58.95
804;BME280;25687;49.976;8.240;2023-06-14T02:06:26;99731.75;;;17.24;59.39
804;BME280;25687;49.976;8.240;2023-06-14T02:08:51;99733.69;;;17.12;59.70
804;BME280;25687;49.976;8.240;2023-06-14T02:11:16;99726.44;;;17.16;58.96
804;BME280;25687;49.976;8.240;2023-06-14T02:13:42;99731.47;;;17.07;59.56
804;BME280;25687;49.976;8.240;2023-06-14T02:16:07;99729.03;;;17.06;59.75
804;BME280;25687;49.976;8.240;2023-06-14T02:18:32;99732.56;;;17.05;60.51
804;BME280;25687;49.976;8.240;2023-06-14T02:20:58;99734.06;;;17.07;59.03
804;BME280;25687;49.976;8.240;2023-06-14T02:23:23;99729.84;;;17.06;58.88
804;BME280;25687;49.976;8.240;2023-06-14T02:25:48;99740.91;;;17.08;58.83
804;BME280;25687;49.976;8.240;2023-06-14T02:28:14;99731.22;;;17.10;59.32
804;BME280;25687;49.976;8.240;2023-06-14T02:30:39;99739.97;;;17.09;58.99
804;BME280;25687;49.976;8.240;2023-06-14T02:33:05;99732.44;;;17.06;59.23
804;BME280;25687;49.976;8.240;2023-06-14T02:35:31;99739.28;;;17.07;58.85
804;BME280;25687;49.976;8.240;2023-06-14T02:37:56;99735.97;;;17.05;59.69
804;BME280;25687;49.976;8.240;2023-06-14T02:40:22;99729.84;;;17.06;59.02
804;BME280;25687;49.976;8.240;2023-06-14T02:42:47;99731.34;;;17.09;59.81
804;BME280;25687;49.976;8.240;2023-06-14T02:45:13;99734.78;;;17.09;58.92
804;BME280;25687;49.976;8.240;2023-06-14T02:47:38;99734.75;;;17.00;59.24
804;BME280;25687;49.976;8.240;2023-06-14T02:50:03;99731.88;;;17.03;59.68
804;BME280;25687;49.976;8.240;2023-06-14T02:52:29;99742.69;;;16.98;59.90
804;BME280;25687;49.976;8.240;2023-06-14T02:54:54;99732.72;;;17.03;59.59
804;BME280;25687;49.976;8.240;2023-06-14T02:57:22;99735.88;;;17.07;59.38
804;BME280;25687;49.976;8.240;2023-06-14T02:59:48;99731.75;;;17.04;59.39
804;BME280;25687;49.976;8.240;2023-06-14T03:02:14;99737.50;;;16.98;60.02
804;BME280;25687;49.976;8.240;2023-06-14T03:04:39;99742.38;;;16.91;60.90
804;BME280;25687;49.976;8.240;2023-06-14T03:07:06;99737.31;;;16.90;61.44
804;BME280;25687;49.976;8.240;2023-06-14T03:09:38;99748.75;;;16.77;62.77
804;BME280;25687;49.976;8.240;2023-06-14T03:12:04;99746.16;;;16.77;62.76
804;BME280;25687;49.976;8.240;2023-06-14T03:14:31;99751.78;;;16.83;62.92
804;BME280;25687;49.976;8.240;2023-06-14T03:16:57;99753.56;;;16.82;63.07
804;BME280;25687;49.976;8.240;2023-06-14T03:19:23;99756.16;;;16.82;62.86
804;BME280;25687;49.976;8.240;2023-06-14T03:21:48;99759.28;;;16.76;62.95
804;BME280;25687;49.976;8.240;2023-06-14T03:24:14;99765.00;;;16.70;63.17
804;BME280;25687;49.976;8.240;2023-06-14T03:26:41;99761.19;;;16.74;63.59
804;BME280;25687;49.976;8.240;2023-06-14T03:29:06;99763.38;;;16.78;63.85
804;BME280;25687;49.976;8.240;2023-06-14T03:31:32;99767.19;;;16.74;63.92
804;BME280;25687;49.976;8.240;2023-06-14T03:33:58;99769.69;;;16.76;64.20
804;BME280;25687;49.976;8.240;2023-06-14T03:36:23;99773.88;;;16.67;64.61
804;BME280;25687;49.976;8.240;2023-06-14T03:38:48;99779.50;;;16.72;64.98
804;BME280;25687;49.976;8.240;2023-06-14T03:41:13;99793.47;;;16.81;66.74
804;BME280;25687;49.976;8.240;2023-06-14T03:43:39;99792.31;;;16.95;64.25
804;BME280;25687;49.976;8.240;2023-06-14T03:46:04;99782.34;;;17.00;64.07
804;BME280;25687;49.976;8.240;2023-06-14T03:48:30;99786.31;;;16.94;63.86
804;BME280;25687;49.976;8.240;2023-06-14T03:50:55;99799.00;;;16.98;67.42
804;BME280;25687;49.976;8.240;2023-06-14T03:53:21;99796.41;;;16.98;71.60
804;BME280;25687;49.976;8.240;2023-06-14T03:55:49;99793.25;;;16.94;73.55
804;BME280;25687;49.976;8.240;2023-06-14T03:58:15;99800.41;;;16.71;76.67
804;BME280;25687;49.976;8.240;2023-06-14T04:00:40;99804.06;;;16.58;77.16
804;BME280;25687;49.976;8.240;2023-06-14T04:03:05;99816.06;;;16.59;77.75
804;BME280;25687;49.976;8.240;2023-06-14T04:05:31;99812.91;;;16.56;77.30
804;BME280;25687;49.976;8.240;2023-06-14T04:07:56;99810.28;;;16.56;78.82
804;BME280;25687;49.976;8.240;2023-06-14T04:10:22;99811.72;;;16.60;78.86
804;BME280;25687;49.976;8.240;2023-06-14T04:12:47;99819.13;;;16.65;79.35
804;BME280;25687;49.976;8.240;2023-06-14T04:15:14;99811.84;;;16.68;74.17
804;BME280;25687;49.976;8.240;2023-06-14T04:17:39;99824.13;;;16.56;75.83
804;BME280;25687;49.976;8.240;2023-06-14T04:20:05;99816.00;;;16.81;69.66
804;BME280;25687;49.976;8.240;2023-06-14T04:22:31;99812.88;;;16.87;67.70
804;BME280;25687;49.976;8.240;2023-06-14T04:24:57;99828.16;;;17.01;67.67
804;BME280;25687;49.976;8.240;2023-06-14T04:27:23;99818.50;;;17.13;66.57
804;BME280;25687;49.976;8.240;2023-06-14T04:29:53;99818.50;;;17.23;66.17
804;BME280;25687;49.976;8.240;2023-06-14T04:32:25;99819.06;;;17.36;67.48
804;BME280;25687;49.976;8.240;2023-06-14T04:34:53;99819.06;;;17.36;70.77
804;BME280;25687;49.976;8.240;2023-06-14T04:37:20;99824.41;;;17.45;72.70
804;BME280;25687;49.976;8.240;2023-06-14T04:39:46;99825.38;;;17.53;73.76
804;BME280;25687;49.976;8.240;2023-06-14T04:42:12;99824.44;;;17.64;74.87
804;BME280;25687;49.976;8.240;2023-06-14T04:44:38;99829.25;;;17.69;74.65
804;BME280;25687;49.976;8.240;2023-06-14T04:47:05;99832.38;;;17.82;75.02
804;BME280;25687;49.976;8.240;2023-06-14T04:49:32;99822.09;;;17.90;72.62
804;BME280;25687;49.976;8.240;2023-06-14T04:51:59;99824.19;;;17.97;74.41
804;BME280;25687;49.976;8.240;2023-06-14T04:54:26;99826.50;;;18.10;71.69
804;BME280;25687;49.976;8.240;2023-06-14T04:56:52;99828.69;;;18.04;65.91
804;BME280;25687;49.976;8.240;2023-06-14T04:59:21;99831.72;;;18.00;62.95
804;BME280;25687;49.976;8.240;2023-06-14T05:01:48;99842.78;;;18.21;62.41
804;BME280;25687;49.976;8.240;2023-06-14T05:04:17;99834.59;;;18.16;60.97
804;BME280;25687;49.976;8.240;2023-06-14T05:06:43;99839.63;;;18.28;61.85
804;BME280;25687;49.976;8.240;2023-06-14T05:09:15;99844.44;;;18.22;60.15
804;BME280;25687;49.976;8.240;2023-06-14T05:11:42;99848.53;;;18.25;59.51
804;BME280;25687;49.976;8.240;2023-06-14T05:14:10;99842.63;;;18.33;58.01
804;BME280;25687;49.976;8.240;2023-06-14T05:16:35;99840.00;;;18.43;58.93
804;BME280;25687;49.976;8.240;2023-06-14T05:19:01;99840.88;;;18.33;59.63
804;BME280;25687;49.976;8.240;2023-06-14T05:21:26;99843.44;;;18.43;58.70
804;BME280;25687;49.976;8.240;2023-06-14T05:23:51;99850.22;;;18.64;58.42
804;BME280;25687;49.976;8.240;2023-06-14T05:26:16;99850.03;;;18.75;58.16
804;BME280;25687;49.976;8.240;2023-06-14T05:28:42;99846.53;;;18.57;58.00
804;BME280;25687;49.976;8.240;2023-06-14T05:31:07;99847.38;;;18.57;56.62
804;BME280;25687;49.976;8.240;2023-06-14T05:33:32;99855.56;;;18.72;57.12
804;BME280;25687;49.976;8.240;2023-06-14T05:35:58;99855.53;;;18.82;56.00
804;BME280;25687;49.976;8.240;2023-06-14T05:38:23;99856.06;;;18.95;54.65
804;BME280;25687;49.976;8.240;2023-06-14T05:40:48;99860.28;;;18.96;55.42
804;BME280;25687;49.976;8.240;2023-06-14T05:43:13;99866.97;;;18.99;54.11
804;BME280;25687;49.976;8.240;2023-06-14T05:45:39;99871.16;;;18.92;53.50
804;BME280;25687;49.976;8.240;2023-06-14T05:48:04;99871.34;;;19.08;52.40
804;BME280;25687;49.976;8.240;2023-06-14T05:50:30;99876.75;;;19.25;51.63
804;BME280;25687;49.976;8.240;2023-06-14T05:52:55;99870.34;;;19.37;50.67
804;BME280;25687;49.976;8.240;2023-06-14T05:55:21;99870.63;;;19.62;51.01
804;BME280;25687;49.976;8.240;2023-06-14T05:57:46;99880.19;;;19.71;48.34
804;BME280;25687;49.976;8.240;2023-06-14T06:00:13;99882.69;;;19.63;48.42
804;BME280;25687;49.976;8.240;2023-06-14T06:02:42;99883.31;;;19.93;47.71
804;BME280;25687;49.976;8.240;2023-06-14T06:05:09;99888.41;;;20.39;46.60
804;BME280;25687;49.976;8.240;2023-06-14T06:07:34;99888.91;;;20.69;45.13
804;BME280;25687;49.976;8.240;2023-06-14T06:10:00;99895.28;;;20.92;45.06
804;BME280;25687;49.976;8.240;2023-06-14T06:12:25;99905.38;;;21.22;43.36
804;BME280;25687;49.976;8.240;2023-06-14T06:14:50;99896.47;;;21.41;43.41
804;BME280;25687;49.976;8.240;2023-06-14T06:17:15;99906.56;;;21.27;43.66
804;BME280;25687;49.976;8.240;2023-06-14T06:19:41;99902.34;;;21.43;42.81
804;BME280;25687;49.976;8.240;2023-06-14T06:22:06;99903.78;;;21.29;44.28
804;BME280;25687;49.976;8.240;2023-06-14T06:24:32;99904.75;;;22.37;41.20
804;BME280;25687;49.976;8.240;2023-06-14T06:26:57;99915.75;;;21.99;41.73
804;BME280;25687;49.976;8.240;2023-06-14T06:29:22;99918.13;;;21.59;42.91
804;BME280;25687;49.976;8.240;2023-06-14T06:31:48;99923.03;;;21.63;42.60
804;BME280;25687;49.976;8.240;2023-06-14T06:34:13;99923.06;;;21.71;42.78
804;BME280;25687;49.976;8.240;2023-06-14T06:36:38;99920.94;;;21.74;42.77
804;BME280;25687;49.976;8.240;2023-06-14T06:39:03;99922.75;;;22.15;43.24
804;BME280;25687;49.976;8.240;2023-06-14T06:41:38;99918.84;;;22.69;41.63
804;BME280;25687;49.976;8.240;2023-06-14T06:44:05;99928.63;;;23.63;40.25
804;BME280;25687;49.976;8.240;2023-06-14T06:46:31;99931.31;;;23.55;39.67
804;BME280;25687;49.976;8.240;2023-06-14T06:48:56;99928.00;;;23.29;40.51
804;BME280;25687;49.976;8.240;2023-06-14T06:51:22;99932.88;;;24.18;39.36
804;BME280;25687;49.976;8.240;2023-06-14T06:53:52;99942.41;;;23.65;39.83
804;BME280;25687;49.976;8.240;2023-06-14T06:56:18;99937.06;;;23.58;39.98
804;BME280;25687;49.976;8.240;2023-06-14T06:58:43;99950.19;;;23.10;40.21
804;BME280;25687;49.976;8.240;2023-06-14T07:01:08;99941.75;;;22.34;41.24
804;BME280;25687;49.976;8.240;2023-06-14T07:03:34;99955.94;;;21.82;43.02
804;BME280;25687;49.976;8.240;2023-06-14T07:06:00;99953.72;;;22.78;41.80
804;BME280;25687;49.976;8.240;2023-06-14T07:08:25;99951.28;;;23.64;39.71
804;BME280;25687;49.976;8.240;2023-06-14T07:10:51;99954.81;;;22.92;39.76
804;BME280;25687;49.976;8.240;2023-06-14T07:13:16;99953.94;;;23.24;40.41
804;BME280;25687;49.976;8.240;2023-06-14T07:15:41;99958.59;;;23.77;38.72
804;BME280;25687;49.976;8.240;2023-06-14T07:18:06;99954.50;;;23.43;39.62
804;BME280;25687;49.976;8.240;2023-06-14T07:20:33;99951.50;;;24.32;38.61
804;BME280;25687;49.976;8.240;2023-06-14T07:22:58;99953.38;;;24.23;37.70
804;BME280;25687;49.976;8.240;2023-06-14T07:25:23;99959.50;;;24.15;38.26
804;BME280;25687;49.976;8.240;2023-06-14T07:27:49;99966.28;;;24.10;37.94
804;BME280;25687;49.976;8.240;2023-06-14T07:30:14;99959.38;;;24.09;39.01
804;BME280;25687;49.976;8.240;2023-06-14T07:32:39;99964.31;;;24.88;37.01
804;BME280;25687;49.976;8.240;2023-06-14T07:35:05;99954.72;;;24.57;36.47
804;BME280;25687;49.976;8.240;2023-06-14T07:37:31;99960.97;;;24.41;37.53
804;BME280;25687;49.976;8.240;2023-06-14T07:39:56;99963.13;;;25.06;36.68
804;BME280;25687;49.976;8.240;2023-06-14T07:42:22;99956.41;;;25.48;36.22
804;BME280;25687;49.976;8.240;2023-06-14T07:44:47;99978.53;;;25.90;35.06
804;BME280;25687;49.976;8.240;2023-06-14T07:47:12;99984.94;;;25.66;35.79
804;BME280;25687;49.976;8.240;2023-06-14T07:49:37;99962.13;;;25.52;36.10
804;BME280;25687;49.976;8.240;2023-06-14T07:52:03;99969.47;;;26.00;35.50
804;BME280;25687;49.976;8.240;2023-06-14T07:54:30;99970.06;;;26.67;33.39
804;BME280;25687;49.976;8.240;2023-06-14T07:56:56;99952.66;;;26.44;33.63
804;BME280;25687;49.976;8.240;2023-06-14T07:59:22;99969.25;;;26.66;33.60
804;BME280;25687;49.976;8.240;2023-06-14T08:01:47;99975.16;;;26.40;33.82
804;BME280;25687;49.976;8.240;2023-06-14T08:04:14;99973.66;;;25.72;34.78
804;BME280;25687;49.976;8.240;2023-06-14T08:06:39;99971.84;;;26.31;33.38
804;BME280;25687;49.976;8.240;2023-06-14T08:09:05;99968.81;;;26.34;34.00
804;BME280;25687;49.976;8.240;2023-06-14T08:11:30;99970.56;;;27.19;32.66
804;BME280;25687;49.976;8.240;2023-06-14T08:13:56;99977.59;;;26.70;32.39
804;BME280;25687;49.976;8.240;2023-06-14T08:16:21;99971.88;;;25.94;34.02
804;BME280;25687;49.976;8.240;2023-06-14T08:18:46;99971.91;;;26.16;34.23
804;BME280;25687;49.976;8.240;2023-06-14T08:21:12;99967.09;;;26.77;32.98
804;BME280;25687;49.976;8.240;2023-06-14T08:23:39;99971.94;;;26.01;33.78
804;BME280;25687;49.976;8.240;2023-06-14T08:26:05;99967.13;;;26.26;32.99
804;BME280;25687;49.976;8.240;2023-06-14T08:28:31;99967.44;;;26.38;31.98
804;BME280;25687;49.976;8.240;2023-06-14T08:30:56;99971.81;;;25.88;33.25
804;BME280;25687;49.976;8.240;2023-06-14T08:33:21;99969.28;;;26.16;33.44
804;BME280;25687;49.976;8.240;2023-06-14T08:35:47;99948.69;;;26.83;32.31
804;BME280;25687;49.976;8.240;2023-06-14T08:38:12;99964.28;;;27.13;32.18
804;BME280;25687;49.976;8.240;2023-06-14T08:40:39;99959.50;;;26.95;32.53
804;BME280;25687;49.976;8.240;2023-06-14T08:43:05;99968.56;;;26.29;33.01
804;BME280;25687;49.976;8.240;2023-06-14T08:45:30;99975.66;;;26.79;31.85
804;BME280;25687;49.976;8.240;2023-06-14T08:47:56;99975.53;;;26.94;31.57
804;BME280;25687;49.976;8.240;2023-06-14T08:50:26;99980.66;;;26.73;33.00
804;BME280;25687;49.976;8.240;2023-06-14T08:52:57;99972.22;;;25.70;34.52
804;BME280;25687;49.976;8.240;2023-06-14T08:55:26;99966.31;;;26.76;32.92
804;BME280;25687;49.976;8.240;2023-06-14T08:57:53;99968.88;;;26.69;33.06
804;BME280;25687;49.976;8.240;2023-06-14T09:00:19;99971.31;;;26.21;34.11
804;BME280;25687;49.976;8.240;2023-06-14T09:02:46;99967.41;;;25.07;35.44
804;BME280;25687;49.976;8.240;2023-06-14T09:05:12;99967.09;;;25.61;35.55
804;BME280;25687;49.976;8.240;2023-06-14T09:07:41;99959.34;;;27.03;33.45
804;BME280;25687;49.976;8.240;2023-06-14T09:10:16;99971.13;;;26.01;32.53
804;BME280;25687;49.976;8.240;2023-06-14T09:12:42;99967.47;;;26.73;32.32
804;BME280;25687;49.976;8.240;2023-06-14T09:15:08;99968.94;;;26.76;32.48
804;BME280;25687;49.976;8.240;2023-06-14T09:17:38;99968.03;;;26.90;32.52
804;BME280;25687;49.976;8.240;2023-06-14T09:20:08;99972.09;;;25.41;34.78
804;BME280;25687;49.976;8.240;2023-06-14T09:22:39;99979.50;;;26.76;32.45
804;BME280;25687;49.976;8.240;2023-06-14T09:25:05;99966.16;;;27.26;31.49
804;BME280;25687;49.976;8.240;2023-06-14T09:27:31;99982.28;;;25.81;33.12
804;BME280;25687;49.976;8.240;2023-06-14T09:29:57;99973.75;;;26.72;31.40
804;BME280;25687;49.976;8.240;2023-06-14T09:32:22;99981.69;;;27.08;31.37
804;BME280;25687;49.976;8.240;2023-06-14T09:34:48;99990.72;;;26.13;32.43
804;BME280;25687;49.976;8.240;2023-06-14T09:37:27;99981.91;;;25.84;33.84
804;BME280;25687;49.976;8.240;2023-06-14T09:39:52;99981.91;;;26.49;31.89
804;BME280;25687;49.976;8.240;2023-06-14T09:42:18;100001.66;;;26.82;31.75
804;BME280;25687;49.976;8.240;2023-06-14T09:44:47;99986.97;;;28.11;30.44
804;BME280;25687;49.976;8.240;2023-06-14T09:47:16;99990.44;;;27.50;31.47
804;BME280;25687;49.976;8.240;2023-06-14T09:49:42;99995.66;;;26.95;31.06
804;BME280;25687;49.976;8.240;2023-06-14T09:52:14;99996.06;;;26.20;32.18
804;BME280;25687;49.976;8.240;2023-06-14T09:54:41;99974.31;;;26.39;31.62
804;BME280;25687;49.976;8.240;2023-06-14T09:57:12;99988.69;;;27.22;30.87
804;BME280;25687;49.976;8.240;2023-06-14T09:59:41;100002.13;;;26.70;31.25
804;BME280;25687;49.976;8.240;2023-06-14T10:02:11;99997.19;;;26.10;32.24
804;BME280;25687;49.976;8.240;2023-06-14T10:04:42;99997.69;;;26.21;32.43
804;BME280;25687;49.976;8.240;2023-06-14T10:07:14;99990.72;;;26.85;31.53
804;BME280;25687;49.976;8.240;2023-06-14T10:09:41;99991.56;;;26.92;30.90
804;BME280;25687;49.976;8.240;2023-06-14T10:12:09;99981.59;;;27.78;30.30
804;BME280;25687;49.976;8.240;2023-06-14T10:14:35;99999.16;;;28.19;28.65
804;BME280;25687;49.976;8.240;2023-06-14T10:17:08;99988.41;;;27.45;29.68
804;BME280;25687;49.976;8.240;2023-06-14T10:19:48;100001.13;;;26.71;31.46
804;BME280;25687;49.976;8.240;2023-06-14T10:22:21;99997.84;;;26.91;30.74
804;BME280;25687;49.976;8.240;2023-06-14T10:24:50;99997.31;;;26.24;30.67
804;BME280;25687;49.976;8.240;2023-06-14T10:27:16;99988.16;;;25.32;32.54
804;BME280;25687;49.976;8.240;2023-06-14T10:32:21;99984.63;;;25.54;31.65
804;BME280;25687;49.976;8.240;2023-06-14T10:34:57;99984.78;;;26.26;31.28
804;BME280;25687;49.976;8.240;2023-06-14T10:37:23;99992.16;;;25.94;31.13
804;BME280;25687;49.976;8.240;2023-06-14T10:39:50;99992.78;;;26.39;30.86
804;BME280;25687;49.976;8.240;2023-06-14T10:42:16;99992.69;;;25.23;32.21
804;BME280;25687;49.976;8.240;2023-06-14T10:44:46;99999.31;;;23.73;34.16
804;BME280;25687;49.976;8.240;2023-06-14T10:50:07;100006.16;;;22.61;36.24
804;BME280;25687;49.976;8.240;2023-06-14T10:52:37;99995.78;;;22.02;37.91
804;BME280;25687;49.976;8.240;2023-06-14T10:55:05;99993.19;;;22.18;37.65
804;BME280;25687;49.976;8.240;2023-06-14T10:57:35;99989.09;;;22.24;39.40
804;BME280;25687;49.976;8.240;2023-06-14T11:00:03;99993.53;;;22.32;37.88
804;BME280;25687;49.976;8.240;2023-06-14T11:03:15;99993.69;;;22.55;37.65
804;BME280;25687;49.976;8.240;2023-06-14T11:11:31;99984.50;;;22.26;38.45
804;BME280;25687;49.976;8.240;2023-06-14T11:13:59;99997.78;;;22.33;38.21
804;BME280;25687;49.976;8.240;2023-06-14T11:16:26;100000.72;;;22.13;39.61
804;BME280;25687;49.976;8.240;2023-06-14T11:18:53;99990.91;;;22.40;38.53
804;BME280;25687;49.976;8.240;2023-06-14T11:21:18;99993.50;;;22.07;39.48
804;BME280;25687;49.976;8.240;2023-06-14T11:23:51;99981.56;;;22.62;39.58
804;BME280;25687;49.976;8.240;2023-06-14T11:26:28;99996.00;;;22.50;38.45
804;BME280;25687;49.976;8.240;2023-06-14T11:28:57;99991.44;;;22.60;39.52
804;BME280;25687;49.976;8.240;2023-06-14T11:31:23;100005.66;;;22.66;39.82
804;BME280;25687;49.976;8.240;2023-06-14T11:33:49;99985.38;;;22.43;38.99
804;BME280;25687;49.976;8.240;2023-06-14T11:36:15;99994.69;;;22.46;38.74
804;BME280;25687;49.976;8.240;2023-06-14T11:38:40;99986.19;;;22.52;40.40
804;BME280;25687;49.976;8.240;2023-06-14T11:41:06;99983.00;;;22.89;38.27
804;BME280;25687;49.976;8.240;2023-06-14T11:43:31;99986.31;;;22.83;38.98
804;BME280;25687;49.976;8.240;2023-06-14T11:45:59;99979.44;;;22.66;38.32
804;BME280;25687;49.976;8.240;2023-06-14T11:48:41;99988.28;;;22.65;38.29
804;BME280;25687;49.976;8.240;2023-06-14T11:51:07;99974.53;;;22.46;38.73
804;BME280;25687;49.976;8.240;2023-06-14T11:53:32;99977.31;;;22.69;39.13
804;BME280;25687;49.976;8.240;2023-06-14T11:55:58;99963.72;;;22.74;39.38
804;BME280;25687;49.976;8.240;2023-06-14T11:58:25;99959.59;;;22.80;39.12
804;BME280;25687;49.976;8.240;2023-06-14T12:00:50;99969.44;;;22.78;39.56
804;BME280;25687;49.976;8.240;2023-06-14T12:03:16;99963.22;;;22.79;40.26
804;BME280;25687;49.976;8.240;2023-06-14T12:05:41;99967.13;;;22.83;39.73
804;BME280;25687;49.976;8.240;2023-06-14T12:08:06;99970.69;;;23.07;39.37
804;BME280;25687;49.976;8.240;2023-06-14T12:10:39;99968.38;;;23.20;38.56
804;BME280;25687;49.976;8.240;2023-06-14T12:13:06;99970.63;;;23.31;38.03
804;BME280;25687;49.976;8.240;2023-06-14T12:15:31;99969.41;;;22.94;39.11
804;BME280;25687;49.976;8.240;2023-06-14T12:17:57;99976.09;;;23.05;38.77
804;BME280;25687;49.976;8.240;2023-06-14T12:20:31;99961.53;;;22.94;38.89
804;BME280;25687;49.976;8.240;2023-06-14T12:22:58;99958.16;;;23.33;38.77
804;BME280;25687;49.976;8.240;2023-06-14T12:25:34;99965.41;;;23.94;38.10
804;BME280;25687;49.976;8.240;2023-06-14T12:28:08;99964.34;;;24.27;36.17
804;BME280;25687;49.976;8.240;2023-06-14T12:30:35;99955.91;;;23.93;37.29
804;BME280;25687;49.976;8.240;2023-06-14T12:33:01;99959.47;;;24.24;37.42
804;BME280;25687;49.976;8.240;2023-06-14T12:35:26;99973.41;;;24.01;38.37
804;BME280;25687;49.976;8.240;2023-06-14T12:37:52;99964.69;;;23.69;37.22
804;BME280;25687;49.976;8.240;2023-06-14T12:40:17;99968.06;;;23.55;37.45
804;BME280;25687;49.976;8.240;2023-06-14T12:42:44;99970.88;;;23.53;38.00
804;BME280;25687;49.976;8.240;2023-06-14T12:45:10;99965.94;;;23.81;37.24
804;BME280;25687;49.976;8.240;2023-06-14T12:47:35;99953.88;;;24.65;36.60
804;BME280;25687;49.976;8.240;2023-06-14T12:50:01;99971.38;;;25.18;35.52
804;BME280;25687;49.976;8.240;2023-06-14T12:52:26;99982.69;;;24.12;36.47
804;BME280;25687;49.976;8.240;2023-06-14T12:54:51;99974.50;;;23.75;38.30
804;BME280;25687;49.976;8.240;2023-06-14T12:57:17;99967.69;;;23.66;37.77
804;BME280;25687;49.976;8.240;2023-06-14T12:59:42;99976.56;;;23.25;38.46
804;BME280;25687;49.976;8.240;2023-06-14T13:02:15;99969.94;;;23.46;38.57
804;BME280;25687;49.976;8.240;2023-06-14T13:04:41;99970.78;;;23.69;38.29
804;BME280;25687;49.976;8.240;2023-06-14T13:07:06;99973.25;;;23.63;37.56
804;BME280;25687;49.976;8.240;2023-06-14T13:09:31;99964.31;;;23.49;37.83
804;BME280;25687;49.976;8.240;2023-06-14T13:11:57;99969.63;;;23.41;37.43
804;BME280;25687;49.976;8.240;2023-06-14T13:14:22;99965.34;;;23.71;38.22
804;BME280;25687;49.976;8.240;2023-06-14T13:16:47;99971.59;;;24.01;37.75
804;BME280;25687;49.976;8.240;2023-06-14T13:19:13;99969.56;;;24.35;37.08
804;BME280;25687;49.976;8.240;2023-06-14T13:21:38;99976.03;;;24.01;36.04
804;BME280;25687;49.976;8.240;2023-06-14T13:24:04;99976.03;;;24.01;36.37
804;BME280;25687;49.976;8.240;2023-06-14T13:26:29;99971.81;;;23.60;37.55
804;BME280;25687;49.976;8.240;2023-06-14T13:28:54;99972.09;;;23.34;37.40
804;BME280;25687;49.976;8.240;2023-06-14T13:31:19;99969.09;;;22.89;38.14
804;BME280;25687;49.976;8.240;2023-06-14T13:33:45;99966.47;;;22.97;37.86
804;BME280;25687;49.976;8.240;2023-06-14T13:36:10;99971.72;;;22.97;37.93
804;BME280;25687;49.976;8.240;2023-06-14T13:41:01;99970.25;;;23.43;37.28